Tropical Cyclones
[Index]
Main Index Home Page Stock Weather Photos Extreme Storms Discussion Storm News and Storm Chasing Reports Tropical Cyclones / Hurricanes / Typhoons Weather Data and Links Wild Fires / Bushfires Weather Observation Techniques Weather Picture Catalogue Tornado Pictures and Reports Stock Video Footage and DVDs for sale
Season 2010-2011 Tropical Cyclone 201120 Track Map
Season 2010-2011 Summaries: [BoM-AU] [JTWC-AU] [JTWC-SIO] [JTWC-SPAC] [JTWC-SH]
<<- Previous TC | JTWC 2010-2011 Season | Next TC ->>

click for intensity scale information  Lat/long Grid: Show Hide

 Date Labels: Show Hide

Joint Typhoon Warning Centre Cyclone Data

Name: 201120

30 Mar 2011 06:00 UTC to 04 Apr 2011 06:00 UTC

    date/time    lat    long     hPa   cat  kts
2011-03-30 06   10.6   132.3    1010         15          
2011-03-30 12   10.7   131.9    1010         15          
2011-03-30 18   10.8   131.4    1010         15          
2011-03-31 00   11.0   130.9    1007         20          
2011-03-31 06   11.3   130.5    1007         20          
2011-03-31 12   11.8   130.3    1007         20          
2011-03-31 18   12.1   129.9    1001         25          
2011-04-01 00   12.4   129.6    1000         25          
2011-04-01 06   12.7   129.3    1000         25          
2011-04-01 12   12.9   128.9    1004         25          
2011-04-01 18   13.2   128.4    1000         30          
2011-04-02 00   13.5   127.6     996         35          
2011-04-02 06   13.8   127.1     996         35          
2011-04-02 12   14.1   126.6     996         35          
2011-04-02 18   14.3   126.0     996         35          
2011-04-03 00   14.8   125.7     996         35          
2011-04-03 06   15.4   125.2     996         35          
2011-04-03 12   16.1   124.7    1000         30          
2011-04-03 18   16.2   124.2    1000         30          
2011-04-04 00   15.9   123.8    1007         20          
2011-04-04 06   15.7   123.3    1010         15          
Winds are 1-min average.

Tropical cyclone tracks developed by Michael Bath using data from the Joint Typhoon Warning Centre Best Tracks and Google Maps.


[Australian Severe Weather index] [Copyright Notice] [Email Contacts] [Search This Site] [Privacy Policy]
Document: tropical_cyclone_201120.htm Updated: 28 June 2017